Time;durP1;ratioP1;P1;durP2;ratioP2;P2;SDS_P1;SDS_P2;PMS_P1;PMS_P2;Temp;Humidity;BMP_temperature;BMP_pressure;BME280_temperature;BME280_humidity;BME280_pressure;Samples;Min_cycle;Max_cycle;Signal;HPM_P1;HPM_P2
2023/09/17 00:01:18;;;;;;;27.25;24.42;;;;;;;;;;10071633;28;20100;-72
2023/09/17 00:06:10;;;;;;;28.60;25.20;;;;;;;;;;10054856;28;20053;-73
2023/09/17 00:11:03;;;;;;;24.67;20.58;;;;;;;;;;10070525;28;20079;-73
2023/09/17 00:15:55;;;;;;;31.73;22.08;;;;;;;;;;10051869;28;20048;-72
2023/09/17 00:20:47;;;;;;;24.17;21.48;;;;;;;;;;10052700;28;20046;-72
2023/09/17 00:25:40;;;;;;;25.55;21.20;;;;;;;;;;10070010;28;20163;-72
2023/09/17 00:30:32;;;;;;;25.35;22.35;;;;;;;;;;10068901;28;20356;-72
2023/09/17 00:35:25;;;;;;;24.42;21.85;;;;;;;;;;10069883;28;20037;-75
2023/09/17 00:40:17;;;;;;;25.83;21.67;;;;;;;;;;10053664;28;20038;-74
2023/09/17 00:45:10;;;;;;;27.02;21.40;;;;;;;;;;10052139;28;20482;-72
2023/09/17 00:50:03;;;;;;;24.50;21.90;;;;;;;;;;10078044;28;20364;-72
2023/09/17 00:54:55;;;;;;;22.25;19.10;;;;;;;;;;10060615;28;20045;-72
2023/09/17 00:59:48;;;;;;;25.08;21.13;;;;;;;;;;10069013;28;20345;-72
2023/09/17 01:04:41;;;;;;;22.90;20.38;;;;;;;;;;10078790;28;20135;-72
2023/09/17 01:09:34;;;;;;;25.45;22.55;;;;;;;;;;10060617;28;20053;-73
2023/09/17 01:14:26;;;;;;;28.52;25.52;;;;;;;;;;10056224;28;20043;-72
2023/09/17 01:19:23;;;;;;;33.97;27.85;;;;;;;;;;10078137;28;20075;-73
2023/09/17 01:24:25;;;;;;;38.25;31.15;;;;;;;;;;10062005;28;20359;-71
2023/09/17 01:29:22;;;;;;;37.40;29.52;;;;;;;;;;10048590;28;20060;-72
2023/09/17 01:34:15;;;;;;;38.60;30.40;;;;;;;;;;10086796;28;20043;-72
2023/09/17 01:39:13;;;;;;;42.40;27.25;;;;;;;;;;10053854;28;20052;-72
2023/09/17 01:44:06;;;;;;;33.35;28.45;;;;;;;;;;10052913;28;20107;-70
2023/09/17 01:48:59;;;;;;;32.22;26.77;;;;;;;;;;10050882;28;20060;-73
2023/09/17 01:53:51;;;;;;;33.00;27.20;;;;;;;;;;10078995;28;20041;-72
2023/09/17 01:58:43;;;;;;;33.10;24.52;;;;;;;;;;10073804;28;20145;-74
2023/09/17 02:03:35;;;;;;;32.00;25.98;;;;;;;;;;10080897;28;20124;-73
2023/09/17 02:08:28;;;;;;;32.17;25.20;;;;;;;;;;10075115;28;20037;-73
2023/09/17 02:13:20;;;;;;;35.22;27.58;;;;;;;;;;10065729;28;20051;-73
2023/09/17 02:18:12;;;;;;;37.38;25.75;;;;;;;;;;10070843;28;20119;-73
2023/09/17 02:23:04;;;;;;;27.35;22.73;;;;;;;;;;10065171;28;20569;-74
2023/09/17 02:27:56;;;;;;;26.00;23.33;;;;;;;;;;10049134;28;20140;-73
2023/09/17 02:32:48;;;;;;;29.67;24.38;;;;;;;;;;10072009;28;20120;-73
2023/09/17 02:37:40;;;;;;;30.55;23.67;;;;;;;;;;10073140;28;20430;-73
2023/09/17 02:42:32;;;;;;;30.50;22.90;;;;;;;;;;10074988;28;20042;-73
2023/09/17 02:47:24;;;;;;;27.92;22.70;;;;;;;;;;10069879;28;20045;-73
2023/09/17 02:52:16;;;;;;;28.48;22.85;;;;;;;;;;10052000;28;20191;-74
2023/09/17 02:57:08;;;;;;;30.70;23.98;;;;;;;;;;10068086;28;20194;-73
2023/09/17 03:02:00;;;;;;;28.30;23.75;;;;;;;;;;10071254;28;20053;-74
2023/09/17 03:06:52;;;;;;;29.50;24.42;;;;;;;;;;10072742;28;20051;-74
2023/09/17 03:11:44;;;;;;;29.15;25.05;;;;;;;;;;10072276;28;20075;-73
2023/09/17 03:16:37;;;;;;;29.73;23.85;;;;;;;;;;10055369;28;20441;-74
2023/09/17 03:21:29;;;;;;;34.60;26.30;;;;;;;;;;10055691;28;20041;-73
2023/09/17 03:26:22;;;;;;;32.67;25.33;;;;;;;;;;10054037;28;20147;-72
2023/09/17 03:31:14;;;;;;;31.58;26.00;;;;;;;;;;10054476;28;20042;-74
2023/09/17 03:36:07;;;;;;;30.02;23.95;;;;;;;;;;10075908;28;20160;-73
2023/09/17 03:41:00;;;;;;;27.25;24.05;;;;;;;;;;10061067;28;20056;-73
2023/09/17 03:45:53;;;;;;;30.98;23.75;;;;;;;;;;10087954;28;20044;-73
2023/09/17 03:50:46;;;;;;;28.77;24.23;;;;;;;;;;10089295;28;20415;-73
2023/09/17 03:55:39;;;;;;;28.40;24.40;;;;;;;;;;10092535;28;20041;-73
2023/09/17 04:00:31;;;;;;;24.77;21.98;;;;;;;;;;10090033;28;20075;-73
2023/09/17 04:05:24;;;;;;;28.95;23.08;;;;;;;;;;10053772;28;20045;-73
2023/09/17 04:10:17;;;;;;;30.73;23.52;;;;;;;;;;10062171;28;20479;-71
2023/09/17 04:15:16;;;;;;;31.67;23.65;;;;;;;;;;10068511;28;20045;-73
2023/09/17 04:20:13;;;;;;;31.92;24.00;;;;;;;;;;10087261;28;20057;-74
2023/09/17 04:25:06;;;;;;;25.92;23.15;;;;;;;;;;10077707;28;20375;-73
2023/09/17 04:29:58;;;;;;;27.60;23.35;;;;;;;;;;10094380;28;20071;-74
2023/09/17 04:34:51;;;;;;;26.98;22.13;;;;;;;;;;10090851;28;20052;-74
2023/09/17 04:39:44;;;;;;;24.23;21.63;;;;;;;;;;10089479;28;20103;-73
2023/09/17 04:44:36;;;;;;;25.92;20.75;;;;;;;;;;10077080;28;20048;-73
2023/09/17 04:49:31;;;;;;;24.35;21.23;;;;;;;;;;10065718;28;20045;-74
2023/09/17 04:54:23;;;;;;;28.65;20.63;;;;;;;;;;10052268;28;20463;-73
2023/09/17 04:59:16;;;;;;;26.15;21.00;;;;;;;;;;10050672;28;20168;-73
2023/09/17 05:04:08;;;;;;;28.20;21.95;;;;;;;;;;10069560;28;20486;-73
2023/09/17 05:09:00;;;;;;;26.02;20.45;;;;;;;;;;10052014;28;20047;-74
2023/09/17 05:13:53;;;;;;;24.55;20.88;;;;;;;;;;10050449;28;20068;-74
2023/09/17 05:18:47;;;;;;;28.98;21.42;;;;;;;;;;10049217;28;20057;-74
2023/09/17 05:23:40;;;;;;;27.92;20.98;;;;;;;;;;10050533;28;20129;-74
2023/09/17 05:28:32;;;;;;;27.35;22.70;;;;;;;;;;10049570;28;20049;-73
2023/09/17 05:33:26;;;;;;;28.77;23.08;;;;;;;;;;10050173;28;20041;-73
2023/09/17 05:38:20;;;;;;;28.27;22.73;;;;;;;;;;10049575;28;20046;-72
2023/09/17 05:43:12;;;;;;;27.85;22.25;;;;;;;;;;10067423;28;20037;-73
2023/09/17 05:48:05;;;;;;;31.75;23.15;;;;;;;;;;10050128;28;20463;-74
2023/09/17 05:52:58;;;;;;;25.73;20.80;;;;;;;;;;10049251;28;20059;-75
2023/09/17 05:57:51;;;;;;;28.02;22.40;;;;;;;;;;10048897;28;20119;-74
2023/09/17 06:02:44;;;;;;;26.05;21.58;;;;;;;;;;10049917;28;20139;-76
2023/09/17 06:07:40;;;;;;;26.08;22.13;;;;;;;;;;10033009;28;20041;-73
2023/09/17 06:12:32;;;;;;;26.58;21.80;;;;;;;;;;10049063;28;20041;-74
2023/09/17 06:17:26;;;;;;;28.60;22.48;;;;;;;;;;10046970;28;20486;-73
2023/09/17 06:22:18;;;;;;;29.33;23.05;;;;;;;;;;10067613;28;20044;-73
2023/09/17 06:27:10;;;;;;;30.80;22.00;;;;;;;;;;10065822;28;20371;-73
2023/09/17 06:32:03;;;;;;;30.27;23.17;;;;;;;;;;10056276;28;20045;-73
2023/09/17 06:36:55;;;;;;;28.42;22.55;;;;;;;;;;10047652;28;20351;-67
2023/09/17 06:41:48;;;;;;;30.42;22.25;;;;;;;;;;10048731;28;20037;-68
2023/09/17 06:46:42;;;;;;;33.22;23.52;;;;;;;;;;10046354;28;20049;-72
2023/09/17 06:51:34;;;;;;;30.10;23.20;;;;;;;;;;10066648;28;20124;-74
2023/09/17 06:56:26;;;;;;;29.17;25.00;;;;;;;;;;10067190;28;20455;-70
2023/09/17 07:01:18;;;;;;;26.55;21.90;;;;;;;;;;10094033;28;20107;-71
2023/09/17 07:06:11;;;;;;;26.58;21.80;;;;;;;;;;10081739;28;20132;-70
2023/09/17 07:11:04;;;;;;;27.02;21.38;;;;;;;;;;10077212;28;20045;-68
2023/09/17 07:15:56;;;;;;;27.27;22.35;;;;;;;;;;10077455;28;20045;-71
2023/09/17 07:20:49;;;;;;;25.58;20.83;;;;;;;;;;10084358;28;20498;-70
2023/09/17 07:25:44;;;;;;;23.92;21.40;;;;;;;;;;10075231;28;20045;-70
2023/09/17 07:30:36;;;;;;;27.60;22.80;;;;;;;;;;10110398;28;20052;-70
2023/09/17 07:35:29;;;;;;;22.95;20.27;;;;;;;;;;10082954;28;20037;-70
2023/09/17 07:40:21;;;;;;;23.17;20.77;;;;;;;;;;10095285;28;20048;-69
2023/09/17 07:45:13;;;;;;;22.52;20.10;;;;;;;;;;10084415;28;20064;-70
2023/09/17 07:50:05;;;;;;;22.45;19.80;;;;;;;;;;10085571;28;20474;-70
2023/09/17 07:54:57;;;;;;;29.15;22.95;;;;;;;;;;10093329;28;20041;-70
2023/09/17 07:59:51;;;;;;;38.15;25.75;;;;;;;;;;10085126;28;20045;-69
2023/09/17 08:04:43;;;;;;;23.67;20.42;;;;;;;;;;10099159;28;20494;-70
2023/09/17 08:09:35;;;;;;;24.00;20.13;;;;;;;;;;10103965;28;20403;-71
2023/09/17 08:14:28;;;;;;;22.15;19.85;;;;;;;;;;10094060;28;20118;-71
2023/09/17 08:19:20;;;;;;;23.55;20.77;;;;;;;;;;10110177;28;20359;-71
2023/09/17 08:24:14;;;;;;;25.92;21.52;;;;;;;;;;10087599;28;20045;-71
2023/09/17 08:29:06;;;;;;;25.88;22.67;;;;;;;;;;10078060;28;20064;-71
2023/09/17 08:34:00;;;;;;;25.63;20.70;;;;;;;;;;10085917;28;20063;-70
2023/09/17 08:38:54;;;;;;;24.85;21.20;;;;;;;;;;10096787;28;20037;-71
2023/09/17 08:43:46;;;;;;;37.22;24.45;;;;;;;;;;10088394;28;20045;-71
2023/09/17 08:48:39;;;;;;;24.83;22.13;;;;;;;;;;10066674;28;20094;-71
2023/09/17 08:53:36;;;;;;;28.85;22.00;;;;;;;;;;10073892;28;20423;-72
2023/09/17 08:58:38;;;;;;;26.92;22.15;;;;;;;;;;10054395;28;20379;-70
2023/09/17 09:03:34;;;;;;;26.33;21.13;;;;;;;;;;10105389;28;20099;-71
2023/09/17 09:08:28;;;;;;;24.27;20.83;;;;;;;;;;10072943;28;20042;-70
2023/09/17 09:13:21;;;;;;;25.38;22.75;;;;;;;;;;10078336;28;20103;-71
2023/09/17 09:18:14;;;;;;;25.10;22.33;;;;;;;;;;10075182;28;20567;-71
2023/09/17 09:23:06;;;;;;;32.05;22.27;;;;;;;;;;10069829;28;20067;-71
2023/09/17 09:28:00;;;;;;;23.30;20.70;;;;;;;;;;10095005;28;20505;-71
2023/09/17 09:32:52;;;;;;;26.17;21.40;;;;;;;;;;10101598;28;20094;-71
2023/09/17 09:37:45;;;;;;;27.27;22.90;;;;;;;;;;10081257;28;20668;-72
2023/09/17 09:42:37;;;;;;;24.13;21.45;;;;;;;;;;10101293;28;20079;-72
2023/09/17 09:47:30;;;;;;;29.13;23.88;;;;;;;;;;10096849;28;20045;-71
2023/09/17 09:52:24;;;;;;;24.60;21.23;;;;;;;;;;10098662;28;20045;-72
2023/09/17 09:57:18;;;;;;;27.08;20.63;;;;;;;;;;10094863;28;20076;-72
2023/09/17 10:02:12;;;;;;;23.58;21.10;;;;;;;;;;10081928;28;20055;-70
2023/09/17 10:07:05;;;;;;;28.55;21.00;;;;;;;;;;10067615;28;20382;-72
2023/09/17 10:11:58;;;;;;;27.35;22.55;;;;;;;;;;10065061;28;20092;-78
2023/09/17 10:16:50;;;;;;;23.95;19.42;;;;;;;;;;10080123;28;20045;-77
2023/09/17 10:21:42;;;;;;;19.33;16.88;;;;;;;;;;10091500;28;20065;-78
2023/09/17 10:26:41;;;;;;;20.52;18.50;;;;;;;;;;10083772;28;20049;-77
2023/09/17 10:31:35;;;;;;;24.30;20.23;;;;;;;;;;10059485;28;20053;-76
2023/09/17 10:36:29;;;;;;;21.42;18.33;;;;;;;;;;10067925;28;20056;-77
2023/09/17 10:41:28;;;;;;;23.13;18.05;;;;;;;;;;10048621;28;20049;-77
2023/09/17 10:46:21;;;;;;;21.00;18.73;;;;;;;;;;10066762;28;20045;-77
2023/09/17 10:51:14;;;;;;;22.60;17.85;;;;;;;;;;10048178;28;20045;-76
2023/09/17 10:56:09;;;;;;;19.25;16.58;;;;;;;;;;10087665;28;20453;-79
2023/09/17 11:01:02;;;;;;;18.50;16.70;;;;;;;;;;10064640;28;20182;-78
2023/09/17 11:05:56;;;;;;;17.42;15.63;;;;;;;;;;10090645;28;20049;-79
2023/09/17 11:10:48;;;;;;;18.02;16.30;;;;;;;;;;10102608;28;20076;-77
2023/09/17 11:15:43;;;;;;;18.15;16.08;;;;;;;;;;10116989;28;20048;-77
2023/09/17 11:20:39;;;;;;;18.33;15.25;;;;;;;;;;10105503;28;20048;-78
2023/09/17 11:25:36;;;;;;;18.87;14.73;;;;;;;;;;10080351;28;20436;-79
2023/09/17 11:30:29;;;;;;;15.18;13.52;;;;;;;;;;10072336;28;20529;-76
2023/09/17 11:35:22;;;;;;;15.23;13.65;;;;;;;;;;10086600;28;20060;-78
2023/09/17 11:40:15;;;;;;;19.63;14.70;;;;;;;;;;10085435;28;20445;-79
2023/09/17 11:45:08;;;;;;;14.60;10.65;;;;;;;;;;10089157;28;20474;-78
2023/09/17 11:50:00;;;;;;;13.48;12.10;;;;;;;;;;10082269;28;20379;-78
2023/09/17 11:54:58;;;;;;;13.13;11.65;;;;;;;;;;10074566;28;20486;-78
2023/09/17 11:59:50;;;;;;;17.65;14.43;;;;;;;;;;10071137;28;20111;-78
2023/09/17 12:04:42;;;;;;;13.50;11.98;;;;;;;;;;10067333;28;20045;-77
2023/09/17 12:10:05;;;;;;;16.55;13.13;;;;;;;;;;10057508;28;20148;-78
2023/09/17 12:14:57;;;;;;;15.02;13.52;;;;;;;;;;10059887;28;20041;-78
2023/09/17 12:20:09;;;;;;;;;;;;;;;;;;;;;
2023/09/17 12:25:19;;;;;;;16.60;14.80;;;;;;;;;;10061577;28;20037;-78
2023/09/17 12:30:12;;;;;;;14.98;13.52;;;;;;;;;;10100390;28;20071;-78
2023/09/17 12:35:06;;;;;;;15.00;11.02;;;;;;;;;;10076519;28;20045;-78
2023/09/17 12:39:58;;;;;;;16.08;10.02;;;;;;;;;;10074788;28;20029;-78
2023/09/17 12:44:50;;;;;;;13.68;11.77;;;;;;;;;;10073155;28;20041;-78
2023/09/17 12:49:45;;;;;;;12.93;10.25;;;;;;;;;;10057727;28;20478;-78
2023/09/17 12:54:37;;;;;;;14.15;11.38;;;;;;;;;;10064864;28;20371;-77
2023/09/17 12:59:34;;;;;;;16.60;9.57;;;;;;;;;;10091641;28;20464;-76
2023/09/17 13:04:32;;;;;;;15.25;8.93;;;;;;;;;;10071108;28;20136;-77
2023/09/17 13:09:24;;;;;;;9.77;8.77;;;;;;;;;;10104599;28;20052;-77
2023/09/17 13:14:16;;;;;;;14.57;8.60;;;;;;;;;;10096640;28;20050;-76
2023/09/17 13:19:08;;;;;;;13.82;8.48;;;;;;;;;;10056499;28;20468;-74
2023/09/17 13:24:01;;;;;;;18.63;9.98;;;;;;;;;;10070048;28;20041;-75
2023/09/17 13:28:53;;;;;;;16.42;7.15;;;;;;;;;;10069603;28;20048;-76
2023/09/17 13:33:45;;;;;;;11.35;8.75;;;;;;;;;;10051599;28;20040;-74
2023/09/17 13:38:40;;;;;;;14.13;8.88;;;;;;;;;;10091023;28;20099;-76
2023/09/17 13:43:32;;;;;;;14.43;8.20;;;;;;;;;;10074736;28;20052;-76
2023/09/17 13:48:25;;;;;;;13.20;8.07;;;;;;;;;;10083123;28;20110;-79
2023/09/17 13:53:17;;;;;;;12.13;8.40;;;;;;;;;;10068124;28;20041;-78
2023/09/17 13:58:10;;;;;;;15.15;7.93;;;;;;;;;;10084573;28;20048;-77
2023/09/17 14:03:04;;;;;;;14.25;6.93;;;;;;;;;;10092278;28;20383;-77
2023/09/17 14:07:56;;;;;;;9.25;8.10;;;;;;;;;;10094432;28;20068;-76
2023/09/17 14:12:48;;;;;;;9.77;7.60;;;;;;;;;;10079083;28;20356;-76
2023/09/17 14:17:40;;;;;;;9.20;6.78;;;;;;;;;;10083135;28;20426;-76
2023/09/17 14:22:32;;;;;;;13.43;6.50;;;;;;;;;;10071689;28;20104;-76
2023/09/17 14:27:24;;;;;;;7.55;6.18;;;;;;;;;;10074391;28;20702;-77
2023/09/17 14:32:19;;;;;;;13.93;5.97;;;;;;;;;;10090031;28;20347;-77
2023/09/17 14:37:11;;;;;;;10.57;7.93;;;;;;;;;;10087181;28;20307;-77
2023/09/17 14:42:04;;;;;;;13.52;6.28;;;;;;;;;;10071388;28;20107;-77
2023/09/17 14:46:59;;;;;;;10.57;6.22;;;;;;;;;;10064830;28;20079;-77
2023/09/17 14:51:52;;;;;;;12.75;6.60;;;;;;;;;;10062395;28;20049;-77
2023/09/17 14:56:44;;;;;;;11.48;5.90;;;;;;;;;;10061382;28;20044;-77
2023/09/17 15:01:35;;;;;;;12.82;5.85;;;;;;;;;;10062256;28;20360;-77
2023/09/17 15:06:30;;;;;;;15.02;8.52;;;;;;;;;;10063855;28;20045;-75
2023/09/17 15:11:22;;;;;;;12.40;5.88;;;;;;;;;;10065535;28;20376;-77
2023/09/17 15:16:14;;;;;;;12.07;5.25;;;;;;;;;;10061102;28;20053;-77
2023/09/17 15:21:06;;;;;;;9.50;5.50;;;;;;;;;;10063031;28;20128;-77
2023/09/17 15:25:58;;;;;;;11.48;6.28;;;;;;;;;;10064328;28;20361;-77
2023/09/17 15:30:50;;;;;;;13.55;6.88;;;;;;;;;;10098288;28;20037;-77
2023/09/17 15:35:42;;;;;;;10.18;6.75;;;;;;;;;;10088755;28;20471;-78
2023/09/17 15:40:35;;;;;;;9.73;5.65;;;;;;;;;;10082352;28;20107;-76
2023/09/17 15:45:27;;;;;;;13.38;6.80;;;;;;;;;;10109741;28;20374;-77
2023/09/17 15:50:19;;;;;;;18.45;6.03;;;;;;;;;;10094827;28;20076;-78
2023/09/17 15:55:11;;;;;;;14.70;7.25;;;;;;;;;;10085202;28;20046;-78
2023/09/17 16:00:03;;;;;;;13.98;7.82;;;;;;;;;;10075369;28;20104;-79
2023/09/17 16:05:02;;;;;;;12.13;6.18;;;;;;;;;;10077376;28;20127;-76
2023/09/17 16:09:54;;;;;;;11.05;6.43;;;;;;;;;;10082667;28;20482;-77
2023/09/17 16:14:46;;;;;;;13.32;6.47;;;;;;;;;;10104428;28;20072;-78
2023/09/17 16:19:39;;;;;;;7.88;5.70;;;;;;;;;;10085446;28;20132;-77
2023/09/17 16:24:36;;;;;;;12.90;6.78;;;;;;;;;;10054054;28;20094;-75
2023/09/17 16:29:28;;;;;;;7.80;5.60;;;;;;;;;;10068124;28;20060;-77
2023/09/17 16:34:20;;;;;;;13.85;5.97;;;;;;;;;;10070784;28;20049;-77
2023/09/17 16:39:12;;;;;;;10.73;6.38;;;;;;;;;;10078012;28;20049;-78
2023/09/17 16:44:04;;;;;;;10.80;5.25;;;;;;;;;;10069283;28;20557;-77
2023/09/17 16:48:56;;;;;;;10.65;5.45;;;;;;;;;;10067845;28;20160;-76
2023/09/17 16:53:48;;;;;;;13.32;6.85;;;;;;;;;;10068880;28;20053;-77
2023/09/17 16:58:40;;;;;;;24.75;6.65;;;;;;;;;;10068688;28;20038;-75
2023/09/17 17:03:32;;;;;;;16.27;10.75;;;;;;;;;;10068122;28;20129;-73
2023/09/17 17:08:26;;;;;;;11.27;7.15;;;;;;;;;;10068428;28;20140;-75
2023/09/17 17:13:18;;;;;;;15.43;8.38;;;;;;;;;;10078192;28;20455;-68
2023/09/17 17:18:10;;;;;;;15.20;7.85;;;;;;;;;;10079486;28;20051;-69
2023/09/17 17:23:02;;;;;;;20.80;9.48;;;;;;;;;;10074096;28;20159;-67
2023/09/17 17:27:54;;;;;;;26.20;11.40;;;;;;;;;;10103438;28;20033;-66
2023/09/17 17:32:46;;;;;;;18.42;10.45;;;;;;;;;;10081554;28;20049;-66
2023/09/17 17:37:38;;;;;;;10.73;7.38;;;;;;;;;;10076616;28;20071;-67
2023/09/17 17:42:30;;;;;;;14.38;7.50;;;;;;;;;;10088407;28;20049;-67
2023/09/17 17:47:23;;;;;;;17.92;7.20;;;;;;;;;;10071597;28;20051;-67
2023/09/17 17:52:19;;;;;;;11.98;7.97;;;;;;;;;;10073657;28;20084;-67
2023/09/17 17:57:11;;;;;;;14.23;8.55;;;;;;;;;;10079821;28;20463;-67
2023/09/17 18:02:03;;;;;;;13.65;7.43;;;;;;;;;;10084538;28;20482;-67
2023/09/17 18:06:56;;;;;;;17.90;7.93;;;;;;;;;;10095354;28;20053;-66
2023/09/17 18:11:49;;;;;;;17.67;11.18;;;;;;;;;;10079366;28;20049;-68
2023/09/17 18:16:40;;;;;;;16.42;11.23;;;;;;;;;;10075071;28;20045;-67
2023/09/17 18:21:32;;;;;;;15.48;11.00;;;;;;;;;;10089413;28;20087;-67
2023/09/17 18:26:25;;;;;;;14.32;9.80;;;;;;;;;;10079665;28;20049;-67
2023/09/17 18:31:17;;;;;;;11.55;9.70;;;;;;;;;;10090618;28;20554;-68
2023/09/17 18:36:09;;;;;;;14.00;10.57;;;;;;;;;;10082333;28;20042;-67
2023/09/17 18:41:00;;;;;;;16.50;9.27;;;;;;;;;;10069750;28;20440;-67
2023/09/17 18:45:52;;;;;;;14.32;8.13;;;;;;;;;;10094508;28;20050;-68
2023/09/17 18:50:44;;;;;;;10.00;8.90;;;;;;;;;;10085139;28;20114;-67
2023/09/17 18:55:36;;;;;;;23.50;11.15;;;;;;;;;;10059375;28;20037;-66
2023/09/17 19:00:28;;;;;;;16.17;11.15;;;;;;;;;;10064882;28;20045;-67
2023/09/17 19:05:20;;;;;;;12.50;9.82;;;;;;;;;;10066599;28;20045;-67
2023/09/17 19:10:13;;;;;;;15.25;8.57;;;;;;;;;;10064550;28;20045;-66
2023/09/17 19:15:06;;;;;;;11.50;7.63;;;;;;;;;;10071321;28;20528;-67
2023/09/17 19:19:58;;;;;;;8.98;7.60;;;;;;;;;;10073176;28;20061;-67
2023/09/17 19:24:50;;;;;;;11.00;8.07;;;;;;;;;;10071987;28;20534;-67
2023/09/17 19:29:45;;;;;;;13.57;7.72;;;;;;;;;;10105080;28;20421;-66
2023/09/17 19:34:39;;;;;;;11.75;8.32;;;;;;;;;;10106538;28;20044;-66
2023/09/17 19:39:31;;;;;;;14.10;7.70;;;;;;;;;;10097107;28;20041;-66
2023/09/17 19:44:23;;;;;;;15.77;7.63;;;;;;;;;;10085411;28;20172;-67
2023/09/17 19:49:15;;;;;;;12.05;7.97;;;;;;;;;;10104971;28;20132;-66
2023/09/17 19:54:07;;;;;;;15.13;8.05;;;;;;;;;;10122981;28;20113;-66
2023/09/17 19:58:59;;;;;;;12.00;8.68;;;;;;;;;;10101702;28;20375;-67
2023/09/17 20:03:52;;;;;;;13.40;8.40;;;;;;;;;;10098848;28;20034;-66
2023/09/17 20:08:44;;;;;;;8.90;7.90;;;;;;;;;;10110175;28;20049;-65
2023/09/17 20:13:36;;;;;;;14.93;8.07;;;;;;;;;;10093858;28;20041;-64
2023/09/17 20:18:28;;;;;;;13.35;9.25;;;;;;;;;;10096528;28;20537;-66
2023/09/17 20:23:21;;;;;;;15.93;8.05;;;;;;;;;;10085974;28;20049;-67
2023/09/17 20:28:13;;;;;;;9.93;7.03;;;;;;;;;;10112600;28;20083;-67
2023/09/17 20:33:07;;;;;;;12.18;7.18;;;;;;;;;;10105258;28;20053;-66
2023/09/17 20:37:59;;;;;;;13.40;8.13;;;;;;;;;;10089392;28;20041;-76
2023/09/17 20:42:52;;;;;;;14.27;7.57;;;;;;;;;;10103546;28;20040;-74
2023/09/17 20:47:44;;;;;;;16.13;7.15;;;;;;;;;;10086834;28;20037;-75
2023/09/17 20:52:37;;;;;;;9.05;7.15;;;;;;;;;;10081270;28;20053;-75
2023/09/17 20:57:29;;;;;;;10.85;7.82;;;;;;;;;;10112730;28;20033;-76
2023/09/17 21:02:24;;;;;;;8.90;7.82;;;;;;;;;;10095498;28;20087;-76
2023/09/17 21:07:16;;;;;;;16.50;8.48;;;;;;;;;;10065205;28;20728;-74
2023/09/17 21:12:08;;;;;;;9.88;7.43;;;;;;;;;;10062920;28;20041;-76
2023/09/17 21:17:00;;;;;;;14.98;10.13;;;;;;;;;;10080350;28;20044;-77
2023/09/17 21:21:52;;;;;;;14.93;7.93;;;;;;;;;;10094652;28;20225;-77
2023/09/17 21:26:44;;;;;;;12.85;7.35;;;;;;;;;;10073555;28;20048;-76
2023/09/17 21:31:36;;;;;;;11.90;7.97;;;;;;;;;;10052672;28;20099;-75
2023/09/17 21:36:28;;;;;;;13.10;9.00;;;;;;;;;;10062890;28;20076;-75
2023/09/17 21:41:20;;;;;;;11.18;7.85;;;;;;;;;;10067954;28;20426;-77
2023/09/17 21:46:12;;;;;;;13.52;8.25;;;;;;;;;;10052430;28;20056;-76
2023/09/17 21:51:04;;;;;;;16.25;8.90;;;;;;;;;;10066909;28;20033;-76
2023/09/17 21:55:56;;;;;;;13.57;8.40;;;;;;;;;;10067633;28;20116;-77
2023/09/17 22:00:48;;;;;;;13.40;8.23;;;;;;;;;;10066304;28;20050;-77
2023/09/17 22:05:42;;;;;;;14.20;9.15;;;;;;;;;;10065497;28;20049;-77
2023/09/17 22:10:37;;;;;;;11.63;9.63;;;;;;;;;;10065278;28;20419;-76
2023/09/17 22:15:29;;;;;;;14.95;9.02;;;;;;;;;;10065674;28;20379;-77
2023/09/17 22:20:22;;;;;;;13.57;8.27;;;;;;;;;;10066219;28;20049;-77
2023/09/17 22:25:14;;;;;;;14.60;8.85;;;;;;;;;;10065232;28;20103;-76
2023/09/17 22:30:07;;;;;;;12.27;9.73;;;;;;;;;;10066643;28;20053;-76
2023/09/17 22:34:59;;;;;;;11.00;8.90;;;;;;;;;;10065609;28;20388;-76
2023/09/17 22:39:51;;;;;;;12.68;8.80;;;;;;;;;;10063999;28;20465;-77
2023/09/17 22:44:42;;;;;;;11.73;9.30;;;;;;;;;;10066611;28;20049;-77
2023/09/17 22:49:35;;;;;;;8.07;7.38;;;;;;;;;;10070783;28;20060;-77
2023/09/17 22:54:27;;;;;;;14.18;9.07;;;;;;;;;;10073371;28;20562;-77
2023/09/17 22:59:20;;;;;;;15.68;9.95;;;;;;;;;;10074133;28;20056;-77
2023/09/17 23:04:12;;;;;;;12.18;9.55;;;;;;;;;;10072504;28;20471;-77
2023/09/17 23:09:04;;;;;;;21.63;11.52;;;;;;;;;;10071328;28;20055;-77
2023/09/17 23:13:56;;;;;;;12.75;10.43;;;;;;;;;;10074711;28;20046;-77
2023/09/17 23:18:50;;;;;;;12.27;10.98;;;;;;;;;;10071365;28;20383;-76
2023/09/17 23:23:43;;;;;;;14.48;10.10;;;;;;;;;;10074396;28;20467;-76
2023/09/17 23:28:36;;;;;;;16.60;10.40;;;;;;;;;;10071921;28;20037;-76
2023/09/17 23:33:29;;;;;;;19.08;9.25;;;;;;;;;;10071917;28;20049;-76
2023/09/17 23:38:22;;;;;;;15.35;8.50;;;;;;;;;;10070987;28;20392;-77
2023/09/17 23:43:14;;;;;;;11.75;9.57;;;;;;;;;;10072380;28;20060;-77
2023/09/17 23:48:06;;;;;;;13.95;8.13;;;;;;;;;;10072126;28;20054;-76
2023/09/17 23:52:58;;;;;;;15.20;9.57;;;;;;;;;;10071107;28;20041;-77
2023/09/17 23:57:50;;;;;;;14.77;9.30;;;;;;;;;;10070665;28;20056;-77
